Time;durP1;ratioP1;P1;durP2;ratioP2;P2;SDS_P1;SDS_P2;PMS_P1;PMS_P2;Temp;Humidity;BMP_temperature;BMP_pressure;BME280_temperature;BME280_humidity;BME280_pressure;Samples;Min_cycle;Max_cycle;Signal;HPM_P1;HPM_P2
2022/06/30 00:00:31;;;;;;;;;;;22.00;67.60;;;;;;5053524;28;823;-68
2022/06/30 00:02:56;;;;;;;;;;;22.00;67.60;;;;;;5052498;28;1112;-68
2022/06/30 00:05:22;;;;;;;;;;;22.00;67.60;;;;;;5052122;28;1957;-68
2022/06/30 00:07:47;;;;;;;;;;;22.00;67.70;;;;;;5053559;28;844;-68
2022/06/30 00:10:13;;;;;;;;;;;22.00;67.70;;;;;;5053496;28;1001;-68
2022/06/30 00:12:38;;;;;;;;;;;22.00;67.70;;;;;;5052258;28;962;-68
2022/06/30 00:15:04;;;;;;;;;;;22.00;67.70;;;;;;5057287;28;1279;-68
2022/06/30 00:17:30;;;;;;;;;;;22.00;67.70;;;;;;5072920;28;793;-69
2022/06/30 00:19:55;;;;;;;;;;;22.00;67.70;;;;;;5072924;28;1114;-70
2022/06/30 00:22:21;;;;;;;;;;;22.00;67.70;;;;;;5073140;28;1005;-68
2022/06/30 00:24:46;;;;;;;;;;;22.00;67.70;;;;;;5072874;28;1901;-68
2022/06/30 00:27:12;;;;;;;;;;;22.00;67.80;;;;;;5073276;28;848;-68
2022/06/30 00:29:37;;;;;;;;;;;22.00;67.80;;;;;;5072263;28;783;-68
2022/06/30 00:32:03;;;;;;;;;;;22.00;67.80;;;;;;5073296;28;944;-68
2022/06/30 00:34:28;;;;;;;;;;;22.00;67.80;;;;;;5058042;28;1283;-68
2022/06/30 00:36:54;;;;;;;;;;;22.00;67.80;;;;;;5053330;28;883;-69
2022/06/30 00:39:20;;;;;;;;;;;22.00;67.70;;;;;;5053608;28;850;-68
2022/06/30 00:41:45;;;;;;;;;;;22.00;67.80;;;;;;5053011;28;870;-68
2022/06/30 00:44:11;;;;;;;;;;;22.00;67.80;;;;;;5057276;28;1906;-69
2022/06/30 00:46:36;;;;;;;;;;;22.00;67.80;;;;;;5057166;28;823;-67
2022/06/30 00:49:02;;;;;;;;;;;22.00;67.80;;;;;;5055937;28;795;-67
2022/06/30 00:51:27;;;;;;;;;;;22.00;67.80;;;;;;5055795;28;819;-68
2022/06/30 00:53:52;;;;;;;;;;;22.00;67.80;;;;;;5056440;28;1213;-67
2022/06/30 00:56:18;;;;;;;;;;;22.00;67.80;;;;;;5055256;28;894;-69
2022/06/30 00:58:43;;;;;;;;;;;22.00;67.80;;;;;;5055034;28;1256;-69
2022/06/30 01:01:10;;;;;;;;;;;22.00;67.80;;;;;;5055161;28;879;-68
2022/06/30 01:03:35;;;;;;;;;;;22.00;67.80;;;;;;5055065;28;1304;-69
2022/06/30 01:06:01;;;;;;;;;;;22.00;67.90;;;;;;5056492;28;1902;-68
2022/06/30 01:08:27;;;;;;;;;;;22.00;67.80;;;;;;5055236;28;879;-68
2022/06/30 01:13:37;;;;;;;;;;;22.00;67.90;;;;;;5056027;28;1347;-68
2022/06/30 01:16:02;;;;;;;;;;;22.00;67.90;;;;;;5112522;22;1908;-76
2022/06/30 01:18:28;;;;;;;;;;;22.00;67.90;;;;;;5077717;28;1253;-76
2022/06/30 01:20:53;;;;;;;;;;;22.00;67.90;;;;;;5098815;28;815;-76
2022/06/30 01:23:19;;;;;;;;;;;22.00;67.90;;;;;;5117161;28;802;-76
2022/06/30 01:25:45;;;;;;;;;;;22.00;67.90;;;;;;5077732;28;1977;-76
2022/06/30 01:28:10;;;;;;;;;;;22.00;67.90;;;;;;5061778;28;1165;-77
2022/06/30 01:30:36;;;;;;;;;;;22.00;67.90;;;;;;5078206;28;895;-75
2022/06/30 01:33:01;;;;;;;;;;;22.00;67.90;;;;;;5094650;28;1310;-74
2022/06/30 01:35:26;;;;;;;;;;;22.00;67.90;;;;;;5095668;28;1206;-74
2022/06/30 01:37:56;;;;;;;;;;;22.00;68.00;;;;;;5095964;28;866;-74
2022/06/30 01:40:22;;;;;;;;;;;22.00;68.00;;;;;;5061061;28;1297;-74
2022/06/30 01:42:47;;;;;;;;;;;22.00;67.90;;;;;;5095883;28;803;-74
2022/06/30 01:45:13;;;;;;;;;;;22.00;68.00;;;;;;5095094;28;1961;-76
2022/06/30 01:47:39;;;;;;;;;;;22.00;68.00;;;;;;5067531;28;1368;-74
2022/06/30 01:50:05;;;;;;;;;;;22.00;68.00;;;;;;5077690;28;768;-75
2022/06/30 01:52:30;;;;;;;;;;;22.00;68.00;;;;;;5077453;28;957;-75
2022/06/30 01:54:56;;;;;;;;;;;22.00;68.00;;;;;;5095376;28;1195;-74
2022/06/30 01:57:21;;;;;;;;;;;22.00;68.00;;;;;;5095719;28;1005;-75
2022/06/30 01:59:46;;;;;;;;;;;22.00;68.00;;;;;;5077490;28;1109;-74
2022/06/30 02:02:12;;;;;;;;;;;22.00;68.00;;;;;;5095541;28;933;-74
2022/06/30 02:04:46;;;;;;;;;;;22.00;68.00;;;;;;5089261;28;1959;-77
2022/06/30 02:07:12;;;;;;;;;;;22.00;68.00;;;;;;5072341;28;1223;-77
2022/06/30 02:09:37;;;;;;;;;;;22.00;68.00;;;;;;5072929;28;1345;-76
2022/06/30 02:14:47;;;;;;;;;;;22.00;68.00;;;;;;5082946;28;1322;-75
2022/06/30 02:17:12;;;;;;;;;;;22.00;68.00;;;;;;5084705;28;1263;-76
2022/06/30 02:19:38;;;;;;;;;;;22.00;68.00;;;;;;5064942;28;1255;-76
2022/06/30 02:22:03;;;;;;;;;;;22.00;68.00;;;;;;5068179;28;1199;-76
2022/06/30 02:24:29;;;;;;;;;;;22.00;68.00;;;;;;5066615;28;1906;-76
2022/06/30 02:26:54;;;;;;;;;;;22.00;68.00;;;;;;5076053;28;1223;-75
2022/06/30 02:29:20;;;;;;;;;;;22.00;68.10;;;;;;5056907;28;1919;-74
2022/06/30 02:31:45;;;;;;;;;;;22.00;68.00;;;;;;5082196;28;990;-74
2022/06/30 02:34:11;;;;;;;;;;;22.00;68.10;;;;;;5074408;28;1283;-74
2022/06/30 02:36:36;;;;;;;;;;;22.00;68.10;;;;;;5057093;28;875;-74
2022/06/30 02:39:02;;;;;;;;;;;22.00;68.10;;;;;;5056538;28;1633;-74
2022/06/30 02:41:27;;;;;;;;;;;22.00;68.10;;;;;;5074422;28;808;-74
2022/06/30 02:43:52;;;;;;;;;;;22.00;68.10;;;;;;5074405;28;863;-74
2022/06/30 02:46:18;;;;;;;;;;;22.00;68.10;;;;;;5074212;28;1898;-74
2022/06/30 02:48:44;;;;;;;;;;;22.00;68.80;;;;;;5056511;28;1207;-74
2022/06/30 02:51:09;;;;;;;;;;;22.00;68.10;;;;;;5074133;28;891;-74
2022/06/30 02:53:35;;;;;;;;;;;22.00;68.10;;;;;;5074410;28;946;-74
2022/06/30 02:56:00;;;;;;;;;;;22.00;68.10;;;;;;5056099;28;1211;-74
2022/06/30 02:58:25;;;;;;;;;;;22.00;68.10;;;;;;5056424;28;931;-75
2022/06/30 03:00:51;;;;;;;;;;;22.00;68.10;;;;;;5074040;28;966;-74
2022/06/30 03:03:16;;;;;;;;;;;22.00;68.10;;;;;;5074107;28;1009;-74
2022/06/30 03:05:42;;;;;;;;;;;22.00;68.10;;;;;;5072838;28;1903;-74
2022/06/30 03:08:07;;;;;;;;;;;22.00;68.20;;;;;;5056114;28;895;-74
2022/06/30 03:10:33;;;;;;;;;;;22.00;68.20;;;;;;5056077;28;957;-74
2022/06/30 03:12:58;;;;;;;;;;;22.00;68.10;;;;;;5056115;28;1093;-74
2022/06/30 03:15:23;;;;;;;;;;;22.00;68.10;;;;;;5055621;28;1290;-74
2022/06/30 03:17:49;;;;;;;;;;;22.00;68.10;;;;;;5073916;28;997;-74
2022/06/30 03:20:14;;;;;;;;;;;22.00;68.10;;;;;;5091246;28;1103;-74
2022/06/30 03:22:40;;;;;;;;;;;22.00;68.20;;;;;;5094056;28;886;-74
2022/06/30 03:25:05;;;;;;;;;;;22.00;68.20;;;;;;5093628;28;1910;-74
2022/06/30 03:27:31;;;;;;;;;;;22.00;68.20;;;;;;5094046;28;787;-74
2022/06/30 03:29:56;;;;;;;;;;;22.00;68.90;;;;;;5075697;28;1005;-75
2022/06/30 03:32:22;;;;;;;;;;;22.00;68.20;;;;;;5093858;28;1028;-75
2022/06/30 03:34:48;;;;;;;;;;;22.00;68.20;;;;;;5093557;28;1188;-74
2022/06/30 03:37:13;;;;;;;;;;;22.00;68.20;;;;;;5093798;28;863;-75
2022/06/30 03:39:39;;;;;;;;;;;22.00;68.20;;;;;;5075438;28;942;-74
2022/06/30 03:42:04;;;;;;;;;;;22.00;68.20;;;;;;5093678;28;902;-74
2022/06/30 03:44:30;;;;;;;;;;;22.00;68.20;;;;;;5075219;28;1890;-74
2022/06/30 03:46:56;;;;;;;;;;;22.00;68.20;;;;;;5094102;28;1030;-75
2022/06/30 03:49:22;;;;;;;;;;;22.00;68.20;;;;;;5075630;28;877;-75
2022/06/30 03:51:47;;;;;;;;;;;22.00;68.20;;;;;;5075509;28;1045;-74
2022/06/30 03:54:13;;;;;;;;;;;22.00;68.20;;;;;;5075373;28;1297;-75
2022/06/30 03:56:38;;;;;;;;;;;22.00;68.20;;;;;;5075491;28;792;-75
2022/06/30 03:59:04;;;;;;;;;;;22.00;68.20;;;;;;5093458;28;831;-75
2022/06/30 04:01:29;;;;;;;;;;;22.00;68.20;;;;;;5075379;28;804;-74
2022/06/30 04:03:54;;;;;;;;;;;22.00;68.20;;;;;;5093351;28;850;-75
2022/06/30 04:06:20;;;;;;;;;;;22.00;68.20;;;;;;5093388;28;1949;-75
2022/06/30 04:08:45;;;;;;;;;;;22.00;68.20;;;;;;5093237;28;1037;-74
2022/06/30 04:11:11;;;;;;;;;;;22.00;68.30;;;;;;5092028;28;1191;-74
2022/06/30 04:13:37;;;;;;;;;;;22.00;68.30;;;;;;5075416;28;812;-75
2022/06/30 04:16:02;;;;;;;;;;;22.00;68.30;;;;;;5080974;28;1203;-75
2022/06/30 04:18:28;;;;;;;;;;;22.00;68.30;;;;;;5041159;28;1177;-74
2022/06/30 04:20:53;;;;;;;;;;;22.00;68.30;;;;;;5075133;28;910;-74
2022/06/30 04:23:20;;;;;;;;;;;22.00;68.30;;;;;;5075010;28;867;-74
2022/06/30 04:25:46;;;;;;;;;;;22.00;68.30;;;;;;5092807;28;1905;-74
2022/06/30 04:28:11;;;;;;;;;;;22.00;68.30;;;;;;5093136;28;866;-74
2022/06/30 04:33:21;;;;;;;;;;;22.00;68.30;;;;;;5093375;28;586;-74
2022/06/30 04:35:46;;;;;;;;;;;22.00;68.40;;;;;;5074621;28;1327;-74
2022/06/30 04:38:12;;;;;;;;;;;22.00;68.40;;;;;;5092877;28;941;-74
2022/06/30 04:43:22;;;;;;;;;;;22.00;68.40;;;;;;5077588;28;688;-74
2022/06/30 04:45:47;;;;;;;;;;;22.00;68.40;;;;;;5092282;28;1967;-74
2022/06/30 04:48:12;;;;;;;;;;;22.00;68.40;;;;;;5091583;28;1222;-73
2022/06/30 04:50:38;;;;;;;;;;;22.00;68.40;;;;;;5092845;28;1009;-74
2022/06/30 04:53:04;;;;;;;;;;;22.00;68.40;;;;;;5091589;28;1279;-75
2022/06/30 04:55:29;;;;;;;;;;;22.00;68.40;;;;;;5092529;28;1304;-74
2022/06/30 04:57:55;;;;;;;;;;;22.00;68.40;;;;;;5074780;28;1030;-73
2022/06/30 05:00:20;;;;;;;;;;;22.00;68.40;;;;;;5092673;28;1052;-74
2022/06/30 05:02:46;;;;;;;;;;;22.00;68.40;;;;;;5093033;28;1041;-74
2022/06/30 05:05:11;;;;;;;;;;;22.00;68.40;;;;;;5092222;28;1953;-74
2022/06/30 05:07:36;;;;;;;;;;;22.00;68.40;;;;;;5074724;28;847;-75
2022/06/30 05:10:02;;;;;;;;;;;22.00;68.40;;;;;;5074774;28;869;-74
2022/06/30 05:12:28;;;;;;;;;;;22.00;68.50;;;;;;5074456;28;803;-74
2022/06/30 05:14:53;;;;;;;;;;;22.00;68.40;;;;;;5089677;28;1274;-75
2022/06/30 05:17:19;;;;;;;;;;;22.00;68.50;;;;;;5072565;28;937;-75
2022/06/30 05:19:44;;;;;;;;;;;22.00;68.50;;;;;;5067744;28;1115;-75
2022/06/30 05:22:10;;;;;;;;;;;22.00;68.50;;;;;;5092719;28;786;-75
2022/06/30 05:27:19;;;;;;;;;;;22.00;68.50;;;;;;5077457;28;697;-75
2022/06/30 05:29:45;;;;;;;;;;;22.00;68.50;;;;;;5077697;28;824;-75
2022/06/30 05:32:10;;;;;;;;;;;22.00;68.50;;;;;;5078139;28;799;-75
2022/06/30 05:34:36;;;;;;;;;;;22.00;68.50;;;;;;5061598;28;1272;-75
2022/06/30 05:37:02;;;;;;;;;;;22.00;68.50;;;;;;5058284;28;786;-74
2022/06/30 05:39:28;;;;;;;;;;;22.00;68.50;;;;;;5075661;28;1113;-75
2022/06/30 05:41:53;;;;;;;;;;;22.00;68.50;;;;;;5057746;28;1477;-75
2022/06/30 05:44:19;;;;;;;;;;;22.00;68.50;;;;;;5057437;28;1965;-74
2022/06/30 05:46:44;;;;;;;;;;;22.00;68.60;;;;;;5075578;28;1052;-74
2022/06/30 05:49:10;;;;;;;;;;;22.00;68.40;;;;;;5075958;28;716;-74
2022/06/30 05:51:35;;;;;;;;;;;22.00;68.30;;;;;;5075391;28;859;-74
2022/06/30 05:54:01;;;;;;;;;;;22.00;68.40;;;;;;5055417;28;1705;-72
2022/06/30 05:56:27;;;;;;;;;;;22.00;68.30;;;;;;5088032;28;1872;-73
2022/06/30 05:58:52;;;;;;;;;;;22.00;68.10;;;;;;5082497;28;1005;-72
2022/06/30 06:01:18;;;;;;;;;;;22.00;68.20;;;;;;5084006;28;1133;-71
2022/06/30 06:03:43;;;;;;;;;;;22.00;68.20;;;;;;5095452;28;815;-68
2022/06/30 06:06:09;;;;;;;;;;;22.00;68.30;;;;;;5094756;28;1922;-70
2022/06/30 06:08:34;;;;;;;;;;;22.00;68.30;;;;;;5096549;28;891;-71
2022/06/30 06:11:00;;;;;;;;;;;22.00;68.10;;;;;;5095111;28;937;-72
2022/06/30 06:13:25;;;;;;;;;;;22.00;68.10;;;;;;5095052;28;807;-71
2022/06/30 06:15:51;;;;;;;;;;;22.00;68.10;;;;;;5084445;28;1200;-71
2022/06/30 06:18:16;;;;;;;;;;;22.00;68.10;;;;;;5074863;28;1114;-71
2022/06/30 06:20:42;;;;;;;;;;;22.00;68.20;;;;;;5074949;28;866;-71
2022/06/30 06:23:07;;;;;;;;;;;22.00;68.20;;;;;;5074755;28;855;-72
2022/06/30 06:25:33;;;;;;;;;;;22.00;68.30;;;;;;5074296;28;1910;-72
2022/06/30 06:30:43;;;;;;;;;;;22.00;68.50;;;;;;5074768;28;681;-70
2022/06/30 06:33:08;;;;;;;;;;;22.00;68.60;;;;;;5078474;28;1135;-73
2022/06/30 06:35:33;;;;;;;;;;;22.00;68.70;;;;;;5076379;28;1308;-72
2022/06/30 06:38:00;;;;;;;;;;;22.00;68.80;;;;;;5094614;28;887;-72
2022/06/30 06:40:26;;;;;;;;;;;22.00;68.90;;;;;;5093612;28;894;-74
2022/06/30 06:42:51;;;;;;;;;;;22.00;69.60;;;;;;5094505;28;795;-74
2022/06/30 06:45:17;;;;;;;;;;;22.00;69.00;;;;;;5094198;28;1910;-74
2022/06/30 06:47:42;;;;;;;;;;;22.00;69.00;;;;;;5093238;28;1362;-73
2022/06/30 06:50:08;;;;;;;;;;;22.00;68.90;;;;;;5094863;28;1024;-72
2022/06/30 06:52:34;;;;;;;;;;;22.00;69.00;;;;;;5076259;28;1020;-72
2022/06/30 06:55:00;;;;;;;;;;;22.00;69.00;;;;;;5094232;28;1403;-72
2022/06/30 06:57:31;;;;;;;;;;;22.00;69.00;;;;;;5094562;28;878;-72
2022/06/30 06:59:56;;;;;;;;;;;22.00;69.20;;;;;;5076319;28;1192;-73
2022/06/30 07:02:22;;;;;;;;;;;22.00;69.10;;;;;;5094411;28;864;-76
2022/06/30 07:04:47;;;;;;;;;;;22.00;69.20;;;;;;5093924;28;1914;-76
2022/06/30 07:07:13;;;;;;;;;;;22.00;69.20;;;;;;5094121;28;794;-76
2022/06/30 07:09:38;;;;;;;;;;;22.00;69.20;;;;;;5094144;28;879;-76
2022/06/30 07:12:04;;;;;;;;;;;22.00;69.30;;;;;;5094291;28;850;-76
2022/06/30 07:16:57;;;;;;;;;;;22.00;69.50;;;;;;5125407;22;3566;-73
2022/06/30 07:19:23;;;;;;;;;;;22.00;69.50;;;;;;5113249;28;1003;-73
2022/06/30 07:21:48;;;;;;;;;;;22.00;69.50;;;;;;5095609;28;1154;-73
2022/06/30 07:24:13;;;;;;;;;;;22.00;69.60;;;;;;5078082;28;1965;-73
2022/06/30 07:26:39;;;;;;;;;;;22.00;69.60;;;;;;5113887;28;1191;-73
2022/06/30 07:29:04;;;;;;;;;;;22.00;69.80;;;;;;5113960;28;874;-73
2022/06/30 07:31:30;;;;;;;;;;;22.00;69.90;;;;;;5095367;28;878;-73
2022/06/30 07:33:55;;;;;;;;;;;22.00;69.70;;;;;;5084264;28;1245;-72
2022/06/30 07:36:21;;;;;;;;;;;22.00;69.90;;;;;;5093190;28;1289;-72
2022/06/30 07:38:47;;;;;;;;;;;22.10;69.90;;;;;;5093161;28;790;-72
2022/06/30 07:41:12;;;;;;;;;;;22.10;70.00;;;;;;5093155;28;858;-72
2022/06/30 07:43:38;;;;;;;;;;;22.10;70.50;;;;;;5092795;28;886;-73
2022/06/30 07:46:04;;;;;;;;;;;22.10;70.90;;;;;;5092514;28;1956;-72
2022/06/30 07:48:29;;;;;;;;;;;22.10;71.10;;;;;;5093083;28;989;-72
2022/06/30 07:50:54;;;;;;;;;;;22.10;70.90;;;;;;5092656;28;913;-72
2022/06/30 07:53:20;;;;;;;;;;;22.20;71.80;;;;;;5092565;28;847;-72
2022/06/30 07:55:45;;;;;;;;;;;22.20;71.10;;;;;;5092029;28;1203;-73
2022/06/30 07:58:11;;;;;;;;;;;22.20;71.10;;;;;;5092858;28;898;-73
2022/06/30 08:00:36;;;;;;;;;;;22.20;71.00;;;;;;5092668;28;1074;-72
2022/06/30 08:03:02;;;;;;;;;;;22.20;71.20;;;;;;5092775;28;879;-73
2022/06/30 08:05:27;;;;;;;;;;;22.20;71.00;;;;;;5074073;28;1953;-73
2022/06/30 08:07:53;;;;;;;;;;;22.20;70.80;;;;;;5092615;28;794;-73
2022/06/30 08:10:18;;;;;;;;;;;22.20;70.40;;;;;;5074678;28;938;-73
2022/06/30 08:12:44;;;;;;;;;;;22.20;70.10;;;;;;5092745;28;858;-73
2022/06/30 08:15:09;;;;;;;;;;;22.20;70.20;;;;;;5096580;28;1587;-73
2022/06/30 08:17:35;;;;;;;;;;;22.20;70.20;;;;;;5094847;28;1007;-73
2022/06/30 08:20:00;;;;;;;;;;;22.20;70.20;;;;;;5097298;28;1176;-73
2022/06/30 08:22:26;;;;;;;;;;;22.20;70.20;;;;;;5092393;28;1005;-73
2022/06/30 08:24:51;;;;;;;;;;;22.20;70.30;;;;;;5091905;28;1963;-73
2022/06/30 08:27:17;;;;;;;;;;;22.10;70.40;;;;;;5092767;28;1051;-73
2022/06/30 08:29:42;;;;;;;;;;;22.20;70.50;;;;;;5092411;28;862;-73
2022/06/30 08:32:08;;;;;;;;;;;22.20;71.10;;;;;;5092617;28;835;-73
2022/06/30 08:34:33;;;;;;;;;;;22.20;71.30;;;;;;5073729;28;1774;-73
2022/06/30 08:36:58;;;;;;;;;;;22.20;71.10;;;;;;5092327;28;958;-73
2022/06/30 08:42:08;;;;;;;;;;;22.20;71.60;;;;;;5077399;28;622;-73
2022/06/30 08:44:34;;;;;;;;;;;22.20;71.60;;;;;;5091527;28;1894;-73
2022/06/30 08:47:00;;;;;;;;;;;22.20;71.20;;;;;;5092570;28;866;-73
2022/06/30 08:49:26;;;;;;;;;;;22.20;71.40;;;;;;5074277;28;960;-73
2022/06/30 08:51:52;;;;;;;;;;;22.20;71.50;;;;;;5074558;28;1407;-73
2022/06/30 08:54:17;;;;;;;;;;;22.20;71.50;;;;;;5073828;28;898;-73
2022/06/30 08:56:43;;;;;;;;;;;22.20;71.60;;;;;;5063853;28;1340;-72
2022/06/30 08:59:08;;;;;;;;;;;22.20;71.40;;;;;;5068174;28;1090;-69
2022/06/30 09:01:33;;;;;;;;;;;22.20;71.30;;;;;;5091371;28;1032;-70
2022/06/30 09:03:59;;;;;;;;;;;22.20;71.30;;;;;;5093361;28;676;-70
2022/06/30 09:06:24;;;;;;;;;;;22.30;71.60;;;;;;5077309;28;1902;-69
2022/06/30 09:08:50;;;;;;;;;;;22.30;71.20;;;;;;5095119;28;845;-69
2022/06/30 09:11:15;;;;;;;;;;;22.30;71.10;;;;;;5077365;28;877;-70
2022/06/30 09:13:45;;;;;;;;;;;22.30;71.20;;;;;;5076730;28;1036;-70
2022/06/30 09:16:11;;;;;;;;;;;22.30;71.40;;;;;;5089571;28;1138;-72
2022/06/30 09:18:36;;;;;;;;;;;22.30;71.40;;;;;;5093242;28;1503;-71
2022/06/30 09:21:22;;;;;;;;;;;22.30;71.00;;;;;;5094874;28;882;-73
2022/06/30 09:23:47;;;;;;;;;;;22.30;71.10;;;;;;5094128;28;1251;-74
2022/06/30 09:26:17;;;;;;;;;;;22.30;71.20;;;;;;5076334;28;1961;-70
2022/06/30 09:28:43;;;;;;;;;;;22.30;70.90;;;;;;5076871;28;1225;-73
2022/06/30 09:31:09;;;;;;;;;;;22.30;70.90;;;;;;5095514;28;909;-74
2022/06/30 09:33:35;;;;;;;;;;;22.30;71.50;;;;;;5076137;28;1211;-74
2022/06/30 09:36:19;;;;;;;;;;;22.30;71.80;;;;;;5058855;28;1752;-72
2022/06/30 09:39:01;;;;;;;;;;;22.30;71.80;;;;;;5069434;28;1198;-72
2022/06/30 09:41:30;;;;;;;;;;;22.30;71.80;;;;;;5094291;28;854;-71
2022/06/30 09:43:56;;;;;;;;;;;22.30;71.60;;;;;;5076074;28;1475;-72
2022/06/30 09:46:21;;;;;;;;;;;22.30;71.70;;;;;;5094368;28;1905;-74
2022/06/30 09:48:47;;;;;;;;;;;22.30;71.50;;;;;;5077257;28;870;-74
2022/06/30 09:51:12;;;;;;;;;;;22.40;71.60;;;;;;5076781;28;851;-74
2022/06/30 09:53:38;;;;;;;;;;;22.40;71.60;;;;;;5094489;28;803;-75
2022/06/30 09:56:11;;;;;;;;;;;22.40;71.60;;;;;;5061503;28;1277;-72
2022/06/30 09:58:36;;;;;;;;;;;22.40;71.40;;;;;;5074283;28;862;-74
2022/06/30 10:01:02;;;;;;;;;;;22.40;71.50;;;;;;5055275;28;1345;-76
2022/06/30 10:03:28;;;;;;;;;;;22.40;71.50;;;;;;5054946;28;791;-75
2022/06/30 10:06:09;;;;;;;;;;;22.40;71.50;;;;;;5072474;28;1951;-76
2022/06/30 10:08:35;;;;;;;;;;;22.40;72.40;;;;;;5074064;28;886;-76
2022/06/30 10:11:00;;;;;;;;;;;22.40;71.60;;;;;;5074940;28;819;-76
2022/06/30 10:13:26;;;;;;;;;;;22.40;71.60;;;;;;5056631;28;811;-76
2022/06/30 10:15:52;;;;;;;;;;;22.40;71.70;;;;;;5056258;28;1198;-76
2022/06/30 10:18:18;;;;;;;;;;;22.40;71.90;;;;;;5077086;28;1118;-76
2022/06/30 10:20:44;;;;;;;;;;;22.40;71.80;;;;;;5097320;28;870;-76
2022/06/30 10:23:10;;;;;;;;;;;22.40;71.80;;;;;;5097033;28;894;-76
2022/06/30 10:25:35;;;;;;;;;;;22.40;71.90;;;;;;5096584;28;1961;-76
2022/06/30 10:28:01;;;;;;;;;;;22.50;72.00;;;;;;5096797;28;873;-75
2022/06/30 10:30:27;;;;;;;;;;;22.50;71.90;;;;;;5114976;28;854;-75
2022/06/30 10:32:55;;;;;;;;;;;22.50;72.40;;;;;;5077726;28;1216;-76
2022/06/30 10:35:21;;;;;;;;;;;22.50;72.90;;;;;;5076053;28;1294;-76
2022/06/30 10:37:53;;;;;;;;;;;22.50;72.70;;;;;;5094340;28;1009;-76
2022/06/30 10:40:20;;;;;;;;;;;22.60;72.70;;;;;;5094249;28;894;-76
2022/06/30 10:42:47;;;;;;;;;;;22.60;72.50;;;;;;5094463;28;842;-76
2022/06/30 10:45:30;;;;;;;;;;;22.50;72.30;;;;;;5071919;28;2215;-76
2022/06/30 10:47:56;;;;;;;;;;;22.50;72.30;;;;;;5088268;28;1133;-75
2022/06/30 10:50:31;;;;;;;;;;;22.50;72.20;;;;;;5075961;28;1169;-76
2022/06/30 10:52:56;;;;;;;;;;;22.50;72.40;;;;;;5094253;28;1010;-76
2022/06/30 10:55:22;;;;;;;;;;;22.50;72.70;;;;;;5075771;28;1281;-76
2022/06/30 10:58:01;;;;;;;;;;;22.60;73.20;;;;;;5075793;28;1037;-75
2022/06/30 11:00:45;;;;;;;;;;;22.60;72.80;;;;;;5059355;28;1155;-76
2022/06/30 11:03:32;;;;;;;;;;;22.60;72.60;;;;;;5094114;28;862;-76
2022/06/30 11:05:58;;;;;;;;;;;22.60;72.40;;;;;;5093484;28;1907;-76
2022/06/30 11:08:36;;;;;;;;;;;22.60;72.20;;;;;;5058980;28;2159;-76
2022/06/30 11:11:19;;;;;;;;;;;22.60;72.20;;;;;;5093049;28;1105;-77
2022/06/30 11:13:45;;;;;;;;;;;22.60;72.50;;;;;;5086854;28;2027;-76
2022/06/30 11:16:12;;;;;;;;;;;22.70;72.40;;;;;;5096591;28;1405;-76
2022/06/30 11:18:38;;;;;;;;;;;22.70;72.80;;;;;;5060413;28;1082;-76
2022/06/30 11:21:03;;;;;;;;;;;22.70;71.90;;;;;;5093467;28;1074;-76
2022/06/30 11:23:29;;;;;;;;;;;22.70;72.00;;;;;;5093304;28;835;-76
2022/06/30 11:28:39;;;;;;;;;;;22.60;71.80;;;;;;5073331;28;984;-76
2022/06/30 11:31:04;;;;;;;;;;;22.70;71.70;;;;;;5075163;28;1099;-76
2022/06/30 11:33:30;;;;;;;;;;;22.60;71.70;;;;;;5092818;28;1213;-75
2022/06/30 11:36:03;;;;;;;;;;;22.70;71.80;;;;;;5092694;28;1201;-76
2022/06/30 11:38:28;;;;;;;;;;;22.60;71.60;;;;;;5075467;28;782;-76
2022/06/30 11:41:54;;;;;;;;;;;22.70;71.60;;;;;;5093408;28;807;-76
2022/06/30 11:43:39;;;;;;;;;;;22.60;71.50;;;;;;5077658;28;1039;-75
2022/06/30 11:46:05;;;;;;;;;;;22.60;72.10;;;;;;5074301;28;1910;-76
2022/06/30 11:48:30;;;;;;;;;;;22.60;72.20;;;;;;5074935;28;1207;-76
2022/06/30 11:50:56;;;;;;;;;;;22.70;72.30;;;;;;5075194;28;1017;-77
2022/06/30 11:53:21;;;;;;;;;;;22.60;72.30;;;;;;5092922;28;819;-76
2022/06/30 11:55:46;;;;;;;;;;;22.60;72.20;;;;;;5057885;28;1378;-75
2022/06/30 11:58:12;;;;;;;;;;;22.60;72.20;;;;;;5093356;28;783;-76
2022/06/30 12:00:37;;;;;;;;;;;22.70;72.30;;;;;;5092460;28;953;-76
2022/06/30 12:03:04;;;;;;;;;;;22.60;72.30;;;;;;5092821;28;877;-76
2022/06/30 12:05:29;;;;;;;;;;;22.70;72.40;;;;;;5084992;28;2174;-76
2022/06/30 12:07:55;;;;;;;;;;;22.70;72.30;;;;;;5069939;28;2081;-76
2022/06/30 12:10:23;;;;;;;;;;;22.70;72.40;;;;;;5066976;28;2364;-76
2022/06/30 12:12:49;;;;;;;;;;;22.70;72.70;;;;;;5085590;28;2321;-76
2022/06/30 12:15:15;;;;;;;;;;;22.70;72.60;;;;;;5092088;28;1587;-76
2022/06/30 12:17:52;;;;;;;;;;;22.70;72.30;;;;;;5074926;28;836;-76
2022/06/30 12:20:18;;;;;;;;;;;22.70;72.10;;;;;;5093320;28;971;-76
2022/06/30 12:22:44;;;;;;;;;;;22.70;72.10;;;;;;5094721;28;850;-76
2022/06/30 12:25:10;;;;;;;;;;;22.70;72.10;;;;;;5077349;28;1910;-75
2022/06/30 12:27:36;;;;;;;;;;;22.70;72.10;;;;;;5095075;28;890;-76
2022/06/30 12:30:06;;;;;;;;;;;22.70;71.90;;;;;;5095112;28;1100;-76
2022/06/30 12:32:32;;;;;;;;;;;22.80;72.40;;;;;;5094230;28;894;-75
2022/06/30 12:34:58;;;;;;;;;;;22.80;73.00;;;;;;5093165;28;1283;-75
2022/06/30 12:37:33;;;;;;;;;;;22.80;72.20;;;;;;5076431;28;926;-76
2022/06/30 12:39:59;;;;;;;;;;;22.90;72.30;;;;;;5096948;28;899;-75
2022/06/30 12:42:26;;;;;;;;;;;22.80;72.30;;;;;;5096967;28;874;-76
2022/06/30 12:44:51;;;;;;;;;;;22.80;72.30;;;;;;5077790;28;1948;-76
2022/06/30 12:47:17;;;;;;;;;;;22.90;72.20;;;;;;5078466;28;914;-76
2022/06/30 12:49:43;;;;;;;;;;;22.80;71.90;;;;;;5096806;28;855;-75
2022/06/30 12:52:13;;;;;;;;;;;22.90;71.70;;;;;;5078514;28;831;-76
2022/06/30 12:54:38;;;;;;;;;;;22.80;71.60;;;;;;5096530;28;1208;-75
2022/06/30 12:57:04;;;;;;;;;;;22.80;71.50;;;;;;5078571;28;1241;-76
2022/06/30 12:59:30;;;;;;;;;;;22.80;71.40;;;;;;5096305;28;850;-76
2022/06/30 13:01:56;;;;;;;;;;;22.80;72.10;;;;;;5096126;28;878;-76
2022/06/30 13:04:22;;;;;;;;;;;22.80;72.00;;;;;;5061047;28;1376;-76
2022/06/30 13:06:48;;;;;;;;;;;22.80;71.60;;;;;;5096133;28;1953;-76
2022/06/30 13:09:16;;;;;;;;;;;22.90;71.50;;;;;;5096308;28;918;-76
2022/06/30 13:11:46;;;;;;;;;;;22.90;71.30;;;;;;5095918;28;826;-76
2022/06/30 13:14:15;;;;;;;;;;;22.90;71.40;;;;;;5078462;28;843;-76
2022/06/30 13:16:41;;;;;;;;;;;22.90;71.60;;;;;;5114250;28;1224;-75
2022/06/30 13:19:07;;;;;;;;;;;22.90;71.40;;;;;;5090072;28;1617;-75
2022/06/30 13:21:32;;;;;;;;;;;22.90;71.10;;;;;;5077596;28;1231;-75
2022/06/30 13:23:58;;;;;;;;;;;22.90;71.10;;;;;;5095665;28;981;-75
2022/06/30 13:26:23;;;;;;;;;;;22.90;71.20;;;;;;5095567;28;1914;-75
2022/06/30 13:28:49;;;;;;;;;;;22.90;71.20;;;;;;5096055;28;842;-75
2022/06/30 13:31:14;;;;;;;;;;;23.00;71.40;;;;;;5095905;28;910;-75
2022/06/30 13:33:40;;;;;;;;;;;23.00;71.50;;;;;;5095750;28;1122;-75
2022/06/30 13:36:06;;;;;;;;;;;22.90;71.50;;;;;;5077851;28;1294;-75
2022/06/30 13:38:31;;;;;;;;;;;22.90;71.30;;;;;;5077974;28;875;-75
2022/06/30 13:40:57;;;;;;;;;;;22.90;71.30;;;;;;5077943;28;803;-75
2022/06/30 13:43:22;;;;;;;;;;;22.90;71.60;;;;;;5078322;28;909;-75
2022/06/30 13:45:48;;;;;;;;;;;22.90;71.40;;;;;;5077341;28;1961;-75
2022/06/30 13:48:13;;;;;;;;;;;22.90;71.50;;;;;;5095940;28;871;-75
2022/06/30 13:50:39;;;;;;;;;;;22.90;71.30;;;;;;5095568;28;890;-76
2022/06/30 13:53:04;;;;;;;;;;;22.90;72.00;;;;;;5077687;28;862;-75
2022/06/30 13:55:30;;;;;;;;;;;22.90;71.40;;;;;;5095032;28;1205;-75
2022/06/30 13:57:55;;;;;;;;;;;22.90;71.40;;;;;;5077314;28;909;-75
2022/06/30 14:00:21;;;;;;;;;;;22.90;71.40;;;;;;5077223;28;1476;-75
2022/06/30 14:02:46;;;;;;;;;;;22.90;71.60;;;;;;5095331;28;862;-75
2022/06/30 14:05:12;;;;;;;;;;;22.90;71.50;;;;;;5076563;28;1951;-76
2022/06/30 14:07:37;;;;;;;;;;;22.90;71.40;;;;;;5094966;28;811;-75
2022/06/30 14:10:03;;;;;;;;;;;22.90;71.40;;;;;;5095116;28;795;-75
2022/06/30 14:12:29;;;;;;;;;;;22.90;71.50;;;;;;5094838;28;811;-75
2022/06/30 14:14:54;;;;;;;;;;;22.90;71.30;;;;;;5094308;28;1216;-75
2022/06/30 14:17:20;;;;;;;;;;;22.90;71.10;;;;;;5094729;28;803;-75
2022/06/30 14:19:45;;;;;;;;;;;22.90;71.00;;;;;;5108705;28;1149;-75
2022/06/30 14:22:11;;;;;;;;;;;22.90;71.00;;;;;;5079897;28;1160;-74
2022/06/30 14:24:37;;;;;;;;;;;22.90;71.00;;;;;;5096614;28;1989;-75
2022/06/30 14:27:02;;;;;;;;;;;22.90;70.90;;;;;;5096771;28;835;-75
2022/06/30 14:29:28;;;;;;;;;;;22.90;70.90;;;;;;5115310;28;1029;-75
2022/06/30 14:31:54;;;;;;;;;;;22.90;70.80;;;;;;5114818;28;993;-75
2022/06/30 14:34:20;;;;;;;;;;;22.90;70.70;;;;;;5082794;28;1137;-75
2022/06/30 14:36:46;;;;;;;;;;;22.90;70.70;;;;;;5094798;28;1218;-75
2022/06/30 14:39:11;;;;;;;;;;;22.90;70.70;;;;;;5094480;28;827;-74
2022/06/30 14:44:21;;;;;;;;;;;22.90;70.70;;;;;;5093806;28;597;-75
2022/06/30 14:46:46;;;;;;;;;;;22.90;70.60;;;;;;5094384;28;1902;-75
2022/06/30 14:49:11;;;;;;;;;;;22.90;70.50;;;;;;5076417;28;799;-75
2022/06/30 14:51:37;;;;;;;;;;;22.90;70.50;;;;;;5094193;28;894;-75
2022/06/30 14:54:02;;;;;;;;;;;23.00;70.60;;;;;;5075287;28;1416;-75
2022/06/30 14:56:28;;;;;;;;;;;23.00;70.70;;;;;;5075950;28;1311;-75